createdAt,value
2023-02-16T00:01:46.123Z,82.58
2023-02-16T00:04:24.679Z,82.35
2023-02-16T00:06:52.971Z,82.48
2023-02-16T00:09:20.568Z,82.47
2023-02-16T00:12:06.743Z,82.38
2023-02-16T00:14:37.917Z,82.67
2023-02-16T00:17:05.279Z,82.46
2023-02-16T00:19:38.059Z,82.83
2023-02-16T00:22:06.825Z,82.73
2023-02-16T00:24:33.651Z,82.94
2023-02-16T00:27:00.788Z,82.98
2023-02-16T00:29:32.558Z,83.50
2023-02-16T00:32:01.834Z,83.30
2023-02-16T00:34:33.233Z,83.76
2023-02-16T00:37:19.700Z,83.54
2023-02-16T00:39:48.451Z,83.67
2023-02-16T00:42:15.106Z,84.08
2023-02-16T00:44:53.836Z,83.60
2023-02-16T00:47:37.406Z,83.64
2023-02-16T00:50:18.483Z,83.80
2023-02-16T00:52:46.666Z,84.18
2023-02-16T00:55:16.325Z,84.12
2023-02-16T00:58:00.192Z,84.63
2023-02-16T01:00:30.424Z,84.37
2023-02-16T01:03:00.012Z,83.81
2023-02-16T01:05:27.082Z,84.21
2023-02-16T01:08:12.140Z,84.00
2023-02-16T01:10:58.570Z,84.34
2023-02-16T01:13:28.572Z,84.39
2023-02-16T01:15:55.957Z,84.35
2023-02-16T01:18:22.991Z,84.50
2023-02-16T01:20:51.268Z,84.82
2023-02-16T01:23:17.884Z,84.73
2023-02-16T01:25:44.582Z,84.66
2023-02-16T01:28:22.939Z,84.46
2023-02-16T01:30:51.358Z,84.54
2023-02-16T01:33:18.502Z,84.57
2023-02-16T01:35:45.483Z,84.58
2023-02-16T01:38:18.785Z,84.50
2023-02-16T01:41:25.714Z,84.46
2023-02-16T01:43:59.796Z,84.17
2023-02-16T01:46:51.160Z,84.02
2023-02-16T01:49:20.462Z,84.07
2023-02-16T01:52:11.947Z,84.22
2023-02-16T01:54:48.749Z,84.29
2023-02-16T01:57:30.646Z,84.44
2023-02-16T01:59:57.183Z,84.59
2023-02-16T02:02:27.911Z,84.48
2023-02-16T02:05:37.585Z,84.54
2023-02-16T02:08:37.452Z,84.71
2023-02-16T02:11:16.138Z,84.78
2023-02-16T02:13:56.592Z,84.83
2023-02-16T02:16:26.157Z,84.89
2023-02-16T02:18:53.059Z,84.75
2023-02-16T02:22:06.503Z,84.64
2023-02-16T02:24:54.370Z,84.80
2023-02-16T02:27:25.537Z,85.08
2023-02-16T02:30:11.585Z,84.75
2023-02-16T02:32:58.689Z,84.84
2023-02-16T02:35:49.726Z,84.67
2023-02-16T02:38:50.072Z,84.52
2023-02-16T02:41:54.764Z,84.58
2023-02-16T02:44:24.071Z,84.97
2023-02-16T02:46:51.257Z,84.66
2023-02-16T02:49:18.862Z,84.67
2023-02-16T02:51:45.716Z,84.80
2023-02-16T02:54:37.571Z,84.98
2023-02-16T02:57:39.435Z,85.01
2023-02-16T03:00:37.094Z,85.15
2023-02-16T03:07:43.693Z,84.55
2023-02-16T03:10:29.520Z,84.96
2023-02-16T03:12:57.447Z,85.01
2023-02-16T03:15:26.130Z,84.90
2023-02-16T03:18:13.966Z,85.17
2023-02-16T03:21:01.545Z,84.82
2023-02-16T03:23:47.669Z,84.70
2023-02-16T03:26:33.862Z,84.58
2023-02-16T03:29:21.276Z,84.69
2023-02-16T03:31:49.351Z,84.44
2023-02-16T03:34:18.089Z,84.66
2023-02-16T03:36:48.672Z,84.53
2023-02-16T03:39:15.625Z,84.71
2023-02-16T03:41:51.618Z,84.82
2023-02-16T03:44:18.798Z,85.18
2023-02-16T03:46:45.607Z,85.03
2023-02-16T03:49:12.353Z,84.88
2023-02-16T03:51:38.981Z,85.21
2023-02-16T03:54:05.687Z,85.39
2023-02-16T03:56:32.300Z,85.20
2023-02-16T03:58:59.099Z,85.12
2023-02-16T04:01:25.874Z,84.75
2023-02-16T04:03:52.745Z,84.65
2023-02-16T04:06:19.510Z,84.75
2023-02-16T04:08:46.174Z,84.95
2023-02-16T04:11:31.260Z,84.83
2023-02-16T04:13:57.908Z,84.85
2023-02-16T04:16:24.601Z,84.86
2023-02-16T04:18:51.321Z,84.83
2023-02-16T04:21:17.896Z,84.82
2023-02-16T04:23:44.556Z,84.90
2023-02-16T04:26:11.164Z,84.77
2023-02-16T04:28:37.747Z,84.30
2023-02-16T04:31:04.800Z,85.02
2023-02-16T04:33:31.630Z,85.13
2023-02-16T04:35:58.197Z,85.09
2023-02-16T04:38:26.108Z,85.37
2023-02-16T04:40:52.714Z,85.35
2023-02-16T04:43:19.328Z,85.44
2023-02-16T04:45:46.078Z,85.94
2023-02-16T04:48:12.802Z,85.70
2023-02-16T04:50:39.434Z,86.05
2023-02-16T04:53:07.278Z,85.88
2023-02-16T04:55:33.906Z,85.97
2023-02-16T04:58:00.601Z,85.95
2023-02-16T05:00:27.294Z,86.06
2023-02-16T05:02:53.957Z,86.50
2023-02-16T05:05:20.599Z,86.68
2023-02-16T05:07:47.154Z,86.58
2023-02-16T05:10:13.802Z,86.50
2023-02-16T05:12:59.047Z,86.53
2023-02-16T05:15:25.866Z,86.69
2023-02-16T05:17:52.525Z,86.85
2023-02-16T05:20:19.226Z,86.23
2023-02-16T05:22:46.304Z,86.23
2023-02-16T05:25:13.330Z,86.65
2023-02-16T05:27:39.953Z,86.28
2023-02-16T05:30:07.228Z,86.61
2023-02-16T05:32:33.839Z,86.41
2023-02-16T05:35:00.472Z,86.75
2023-02-16T05:37:27.101Z,86.83
2023-02-16T05:39:53.865Z,86.80
2023-02-16T05:42:20.453Z,86.56
2023-02-16T05:44:47.798Z,86.88
2023-02-16T05:47:14.466Z,86.44
2023-02-16T05:49:41.051Z,86.47
2023-02-16T05:52:07.680Z,86.46
2023-02-16T05:54:34.692Z,86.72
2023-02-16T05:57:01.284Z,86.98
2023-02-16T05:59:27.901Z,86.95
2023-02-16T06:01:54.766Z,86.78
2023-02-16T06:04:21.907Z,87.09
2023-02-16T06:06:48.755Z,87.14
2023-02-16T06:09:15.488Z,87.07
2023-02-16T06:11:42.525Z,87.11
2023-02-16T06:14:18.068Z,86.92
2023-02-16T06:16:47.528Z,86.86
2023-02-16T06:19:16.544Z,86.91
2023-02-16T06:21:43.876Z,86.83
2023-02-16T06:24:12.534Z,86.61
2023-02-16T06:26:39.587Z,86.77
2023-02-16T06:29:06.571Z,87.04
2023-02-16T06:31:36.056Z,86.81
2023-02-16T06:34:03.824Z,86.92
2023-02-16T06:36:30.961Z,86.42
2023-02-16T06:38:57.569Z,86.79
2023-02-16T06:41:37.754Z,86.70
2023-02-16T06:44:13.578Z,86.65
2023-02-16T06:46:44.417Z,86.82
2023-02-16T06:49:20.464Z,86.72
2023-02-16T06:51:49.671Z,86.83
2023-02-16T06:54:17.077Z,86.79
2023-02-16T06:56:43.693Z,86.60
2023-02-16T06:59:12.432Z,86.68
2023-02-16T07:01:39.073Z,86.68
2023-02-16T07:04:05.766Z,86.39
2023-02-16T07:06:32.451Z,86.29
2023-02-16T07:08:59.392Z,86.67
2023-02-16T07:11:26.211Z,85.99
2023-02-16T07:13:52.912Z,85.98
2023-02-16T07:16:19.554Z,86.27
2023-02-16T07:18:47.324Z,86.00
2023-02-16T07:21:15.048Z,85.79
2023-02-16T07:23:42.751Z,85.92
2023-02-16T07:26:09.653Z,85.76
2023-02-16T07:28:36.419Z,85.65
2023-02-16T07:31:10.682Z,85.62
2023-02-16T07:33:38.676Z,85.15
2023-02-16T07:36:06.229Z,85.20
2023-02-16T07:38:33.370Z,85.37
2023-02-16T07:40:59.983Z,85.01
2023-02-16T07:43:26.761Z,84.69
2023-02-16T07:45:54.105Z,85.20
2023-02-16T07:48:21.040Z,85.39
2023-02-16T07:50:47.731Z,85.20
2023-02-16T07:53:14.401Z,85.25
2023-02-16T07:55:43.031Z,85.17
2023-02-16T07:58:09.841Z,84.98
2023-02-16T08:00:36.673Z,84.66
2023-02-16T08:03:04.097Z,84.71
2023-02-16T08:05:34.115Z,84.63
2023-02-16T08:08:00.750Z,84.11
2023-02-16T08:10:27.412Z,84.24
2023-02-16T08:12:54.054Z,83.89
2023-02-16T08:15:20.807Z,83.85
2023-02-16T08:17:47.938Z,83.29
2023-02-16T08:20:14.859Z,83.46
2023-02-16T08:22:41.543Z,83.11
2023-02-16T08:25:08.458Z,83.00
2023-02-16T08:27:35.765Z,82.35
2023-02-16T08:30:02.484Z,82.06
2023-02-16T08:32:29.715Z,81.16
2023-02-16T08:34:57.340Z,80.06
2023-02-16T08:37:24.777Z,79.67
2023-02-16T08:39:52.045Z,78.75
2023-02-16T08:42:18.656Z,78.73
2023-02-16T08:44:45.339Z,78.26
2023-02-16T08:47:12.084Z,77.84
2023-02-16T08:49:39.405Z,76.98
2023-02-16T08:52:06.478Z,76.87
2023-02-16T08:54:33.467Z,75.62
2023-02-16T08:57:02.665Z,74.98
2023-02-16T08:59:29.428Z,74.20
2023-02-16T09:02:00.850Z,73.31
2023-02-16T09:04:29.715Z,72.69
2023-02-16T09:06:58.142Z,72.25
2023-02-16T09:09:26.366Z,71.75
2023-02-16T09:11:53.559Z,71.66
2023-02-16T09:14:21.479Z,72.10
2023-02-16T09:16:48.379Z,71.47
2023-02-16T09:19:17.626Z,70.63
2023-02-16T09:21:45.099Z,70.34
2023-02-16T09:24:12.983Z,69.57
2023-02-16T09:26:42.714Z,68.58
2023-02-16T09:29:12.421Z,67.27
2023-02-16T09:31:40.186Z,66.98
2023-02-16T09:34:20.909Z,65.60
2023-02-16T09:36:48.047Z,65.07
2023-02-16T09:39:17.014Z,63.37
2023-02-16T09:41:59.189Z,62.48
2023-02-16T09:45:00.896Z,61.79
2023-02-16T09:47:30.918Z,61.32
2023-02-16T09:50:00.341Z,61.34
2023-02-16T09:52:37.372Z,60.36
2023-02-16T09:55:24.839Z,58.49
2023-02-16T09:58:22.426Z,57.44
2023-02-16T10:00:51.245Z,55.76
2023-02-16T10:03:29.139Z,55.67
2023-02-16T10:06:14.125Z,53.36
2023-02-16T10:08:51.228Z,53.37
2023-02-16T10:11:38.748Z,53.90
2023-02-16T10:14:37.387Z,56.57
2023-02-16T10:17:23.944Z,55.04
2023-02-16T10:19:59.487Z,55.00
2023-02-16T10:22:34.220Z,51.83
2023-02-16T10:25:04.777Z,49.13
2023-02-16T10:27:40.712Z,44.03
2023-02-16T10:30:19.307Z,42.06
2023-02-16T10:33:00.689Z,39.50
2023-02-16T10:35:49.230Z,38.06
2023-02-16T10:38:43.056Z,35.63
2023-02-16T10:41:32.980Z,34.34
2023-02-16T10:44:08.500Z,34.88
2023-02-16T10:46:41.263Z,34.99
2023-02-16T10:49:16.786Z,35.88
2023-02-16T10:51:49.412Z,35.42
2023-02-16T10:54:32.921Z,36.35
2023-02-16T10:57:07.382Z,36.97
2023-02-16T10:59:45.411Z,37.11
2023-02-16T11:02:18.200Z,35.87
2023-02-16T11:04:48.580Z,33.57
2023-02-16T11:07:18.670Z,34.90
2023-02-16T11:09:48.019Z,32.83
2023-02-16T11:12:32.446Z,32.59
2023-02-16T11:15:04.739Z,32.37
2023-02-16T11:17:33.081Z,31.23
2023-02-16T11:20:05.509Z,31.76
2023-02-16T11:22:37.861Z,31.43
2023-02-16T11:25:33.599Z,30.17
2023-02-16T11:28:09.541Z,30.10
2023-02-16T11:30:39.948Z,29.67
2023-02-16T11:33:28.418Z,30.20
2023-02-16T11:35:56.982Z,30.50
2023-02-16T11:38:34.198Z,30.32
2023-02-16T11:41:03.396Z,30.17
2023-02-16T11:43:34.611Z,30.23
2023-02-16T11:46:13.843Z,29.93
2023-02-16T11:48:40.801Z,30.40
2023-02-16T11:51:15.191Z,31.26
2023-02-16T11:53:44.296Z,30.73
2023-02-16T11:56:23.093Z,31.74
2023-02-16T11:59:24.405Z,31.38
2023-02-16T12:02:00.472Z,31.50
2023-02-16T12:04:29.796Z,31.01
2023-02-16T12:07:29.770Z,30.16
2023-02-16T12:10:15.130Z,30.71
2023-02-16T12:12:51.779Z,30.71
2023-02-16T12:15:27.524Z,30.99
2023-02-16T12:18:36.978Z,31.04
2023-02-16T12:21:17.107Z,31.29
2023-02-16T12:24:01.856Z,32.02
2023-02-16T12:26:51.944Z,32.77
2023-02-16T12:29:37.967Z,31.96
2023-02-16T12:32:12.596Z,31.71
2023-02-16T12:35:19.014Z,32.41
2023-02-16T12:37:53.975Z,33.15
2023-02-16T12:40:33.635Z,34.98
2023-02-16T12:43:04.006Z,36.87
2023-02-16T12:45:36.611Z,37.12
2023-02-16T12:48:26.185Z,35.77
2023-02-16T12:50:56.135Z,35.61
2023-02-16T12:53:36.518Z,35.32
2023-02-16T12:56:08.469Z,35.55
2023-02-16T12:58:40.385Z,34.96
2023-02-16T13:01:15.996Z,35.45
2023-02-16T13:04:20.248Z,35.17
2023-02-16T13:07:01.986Z,36.69
2023-02-16T13:09:44.128Z,37.99
2023-02-16T13:12:19.594Z,39.92
2023-02-16T13:14:55.951Z,40.09
2023-02-16T13:17:33.311Z,41.44
2023-02-16T13:19:59.908Z,42.50
2023-02-16T13:22:49.349Z,42.10
2023-02-16T13:25:44.474Z,42.55
2023-02-16T13:28:37.024Z,43.35
2023-02-16T13:31:15.420Z,44.13
2023-02-16T13:34:07.039Z,44.33
2023-02-16T13:36:42.906Z,45.02
2023-02-16T13:39:35.854Z,44.95
2023-02-16T13:42:41.443Z,45.33
2023-02-16T13:45:19.663Z,45.68
2023-02-16T13:47:46.525Z,45.69
2023-02-16T13:50:24.879Z,45.59
2023-02-16T13:52:53.180Z,45.62
2023-02-16T13:55:30.745Z,46.78
2023-02-16T13:58:05.716Z,46.76
2023-02-16T14:00:47.882Z,46.61
2023-02-16T14:03:17.531Z,48.30
2023-02-16T14:05:53.042Z,47.53
2023-02-16T14:08:24.260Z,47.96
2023-02-16T14:10:53.950Z,48.51
2023-02-16T14:13:38.770Z,48.03
2023-02-16T14:16:08.635Z,48.57
2023-02-16T14:19:07.770Z,48.65
2023-02-16T14:21:37.111Z,48.45
2023-02-16T14:24:07.438Z,49.53
2023-02-16T14:26:56.459Z,50.49
2023-02-16T14:29:30.559Z,50.90
2023-02-16T14:32:15.755Z,50.94
2023-02-16T14:35:07.012Z,51.35
2023-02-16T14:37:42.232Z,52.05
2023-02-16T14:40:17.371Z,52.33
2023-02-16T14:42:53.212Z,52.73
2023-02-16T14:46:05.777Z,52.80
2023-02-16T14:48:48.418Z,53.45
2023-02-16T14:51:22.809Z,54.09
2023-02-16T14:54:09.806Z,54.43
2023-02-16T14:56:42.073Z,54.38
2023-02-16T14:59:28.314Z,54.42
2023-02-16T15:01:55.827Z,54.78
2023-02-16T15:04:31.171Z,54.44
2023-02-16T15:07:03.248Z,54.20
2023-02-16T15:09:33.063Z,54.67
2023-02-16T15:12:24.062Z,54.49
2023-02-16T15:15:01.163Z,54.84
2023-02-16T15:18:00.200Z,54.83
2023-02-16T15:20:38.508Z,55.28
2023-02-16T15:23:16.202Z,55.67
2023-02-16T15:25:42.958Z,55.78
2023-02-16T15:28:12.531Z,56.38
2023-02-16T15:30:48.486Z,56.99
2023-02-16T15:33:24.319Z,57.06
2023-02-16T15:35:57.330Z,56.92
2023-02-16T15:38:27.312Z,57.69
2023-02-16T15:40:55.656Z,58.24
2023-02-16T15:43:45.533Z,59.05
2023-02-16T15:46:37.751Z,59.95
2023-02-16T15:49:14.710Z,60.50
2023-02-16T15:51:43.135Z,60.46
2023-02-16T15:54:28.703Z,61.36
2023-02-16T15:56:58.475Z,61.63
2023-02-16T15:59:38.541Z,62.13
2023-02-16T16:02:25.842Z,62.10
2023-02-16T16:04:58.636Z,62.94
2023-02-16T16:07:29.198Z,63.08
2023-02-16T16:09:57.755Z,63.27
2023-02-16T16:12:25.836Z,63.69
2023-02-16T16:14:56.867Z,63.49
2023-02-16T16:17:30.754Z,64.13
2023-02-16T16:20:17.965Z,64.41
2023-02-16T16:22:44.908Z,64.73
2023-02-16T16:25:36.951Z,65.34
2023-02-16T16:28:11.490Z,65.84
2023-02-16T16:30:43.874Z,65.97
2023-02-16T16:33:15.104Z,66.41
2023-02-16T16:35:48.160Z,65.86
2023-02-16T16:38:42.606Z,66.17
2023-02-16T16:41:25.793Z,66.78
2023-02-16T16:43:56.615Z,67.27
2023-02-16T16:46:24.536Z,67.87
2023-02-16T16:48:57.800Z,67.46
2023-02-16T16:51:24.310Z,68.04
2023-02-16T16:53:51.814Z,68.16
2023-02-16T16:56:19.553Z,68.23
2023-02-16T16:58:53.764Z,68.50
2023-02-16T17:01:21.640Z,68.11
2023-02-16T17:03:49.053Z,68.02
2023-02-16T17:06:18.300Z,68.34
2023-02-16T17:08:45.409Z,68.44
2023-02-16T17:11:23.674Z,68.88
2023-02-16T17:13:51.690Z,68.83
2023-02-16T17:16:36.524Z,68.34
2023-02-16T17:19:03.621Z,68.48
2023-02-16T17:21:30.282Z,67.79
2023-02-16T17:23:56.910Z,67.39
2023-02-16T17:26:23.724Z,67.27
2023-02-16T17:28:50.616Z,67.37
2023-02-16T17:31:17.494Z,67.58
2023-02-16T17:33:45.206Z,67.58
2023-02-16T17:36:16.789Z,67.26
2023-02-16T17:38:44.706Z,67.05
2023-02-16T17:41:21.765Z,67.36
2023-02-16T17:43:49.462Z,67.28
2023-02-16T17:46:18.176Z,67.55
2023-02-16T17:48:47.533Z,67.65
2023-02-16T17:51:18.411Z,67.29
2023-02-16T17:53:45.354Z,67.05
2023-02-16T17:56:14.361Z,66.78
2023-02-16T17:58:41.114Z,66.51
2023-02-16T18:01:10.343Z,66.24
2023-02-16T18:03:36.883Z,65.67
2023-02-16T18:06:03.891Z,65.65
2023-02-16T18:08:30.772Z,65.71
2023-02-16T18:11:02.146Z,66.00
2023-02-16T18:13:29.595Z,66.29
2023-02-16T18:15:56.625Z,66.09
2023-02-16T18:18:23.191Z,65.99
2023-02-16T18:20:50.112Z,66.00
2023-02-16T18:23:17.175Z,65.81
2023-02-16T18:25:44.162Z,66.29
2023-02-16T18:28:14.954Z,66.51
2023-02-16T18:30:41.693Z,65.90
2023-02-16T18:33:08.346Z,66.30
2023-02-16T18:35:34.889Z,66.52
2023-02-16T18:38:01.813Z,66.62
2023-02-16T18:40:28.419Z,66.84
2023-02-16T18:42:56.659Z,65.53
2023-02-16T18:45:23.704Z,66.25
2023-02-16T18:47:50.508Z,66.12
2023-02-16T18:50:17.302Z,66.60
2023-02-16T18:52:44.927Z,66.45
2023-02-16T18:55:15.411Z,66.04
2023-02-16T18:57:42.336Z,66.15
2023-02-16T19:00:12.027Z,65.79
2023-02-16T19:02:40.903Z,65.95
2023-02-16T19:05:09.259Z,65.04
2023-02-16T19:07:36.182Z,64.08
2023-02-16T19:10:04.179Z,63.97
2023-02-16T19:12:30.798Z,63.76
2023-02-16T19:14:57.463Z,64.24
2023-02-16T19:17:24.066Z,64.53
2023-02-16T19:19:50.654Z,64.64
2023-02-16T19:22:17.324Z,64.43
2023-02-16T19:24:43.932Z,64.45
2023-02-16T19:27:10.509Z,64.35
2023-02-16T19:29:37.103Z,63.43
2023-02-16T19:32:03.982Z,63.54
2023-02-16T19:34:30.706Z,63.47
2023-02-16T19:36:57.219Z,63.10
2023-02-16T19:39:23.784Z,62.54
2023-02-16T19:41:50.409Z,63.05
2023-02-16T19:44:17.286Z,62.66
2023-02-16T19:46:43.970Z,62.52
2023-02-16T19:49:13.814Z,62.50
2023-02-16T19:51:40.846Z,62.73
2023-02-16T19:54:07.758Z,62.44
2023-02-16T19:56:36.310Z,62.90
2023-02-16T19:59:02.980Z,63.15
2023-02-16T20:01:29.594Z,63.38
2023-02-16T20:03:57.672Z,63.33
2023-02-16T20:06:27.405Z,63.55
2023-02-16T20:08:55.308Z,63.65
2023-02-16T20:11:25.143Z,64.09
2023-02-16T20:13:52.711Z,64.16
2023-02-16T20:16:20.388Z,64.72
2023-02-16T20:18:47.360Z,65.64
2023-02-16T20:21:16.918Z,65.86
2023-02-16T20:23:43.884Z,66.02
2023-02-16T20:26:14.923Z,66.22
2023-02-16T20:28:41.804Z,66.38
2023-02-16T20:31:39.381Z,66.72
2023-02-16T20:34:07.729Z,66.67
2023-02-16T20:36:37.147Z,66.99
2023-02-16T20:39:05.747Z,66.71
2023-02-16T20:41:32.381Z,66.75
2023-02-16T20:43:59.552Z,67.25
2023-02-16T20:46:26.296Z,67.37
2023-02-16T20:48:53.088Z,67.51
2023-02-16T20:51:20.188Z,67.97
2023-02-16T20:53:46.787Z,68.34
2023-02-16T20:56:16.687Z,67.53
2023-02-16T20:58:45.843Z,68.15
2023-02-16T21:01:20.578Z,67.96
2023-02-16T21:03:47.767Z,67.95
2023-02-16T21:06:15.892Z,67.60
2023-02-16T21:08:42.945Z,67.77
2023-02-16T21:11:10.086Z,67.37
2023-02-16T21:13:39.509Z,67.74
2023-02-16T21:16:07.272Z,67.79
2023-02-16T21:18:34.848Z,67.91
2023-02-16T21:21:02.312Z,67.93
2023-02-16T21:23:29.594Z,67.97
2023-02-16T21:26:00.860Z,67.67
2023-02-16T21:28:28.026Z,67.69
2023-02-16T21:30:55.332Z,68.16
2023-02-16T21:33:22.718Z,67.84
2023-02-16T21:35:49.328Z,67.81
2023-02-16T21:38:17.712Z,67.81
2023-02-16T21:41:03.235Z,67.69
2023-02-16T21:43:29.862Z,68.27
2023-02-16T21:46:01.341Z,68.18
2023-02-16T21:48:46.750Z,68.25
2023-02-16T21:51:22.239Z,68.64
2023-02-16T21:53:48.944Z,68.17
2023-02-16T21:56:29.256Z,68.10
2023-02-16T21:58:56.917Z,68.37
2023-02-16T22:01:35.227Z,68.22
2023-02-16T22:04:03.148Z,67.94
2023-02-16T22:06:32.655Z,68.00
2023-02-16T22:09:00.511Z,67.68
2023-02-16T22:11:27.346Z,67.64
2023-02-16T22:13:59.126Z,67.75
2023-02-16T22:16:28.475Z,67.75
2023-02-16T22:19:07.178Z,68.08
2023-02-16T22:21:38.611Z,68.40
2023-02-16T22:24:06.695Z,68.50
2023-02-16T22:26:35.110Z,68.61
2023-02-16T22:29:03.474Z,68.53
2023-02-16T22:31:30.533Z,67.99
2023-02-16T22:33:59.641Z,67.56
2023-02-16T22:36:26.822Z,67.43
2023-02-16T22:38:54.077Z,67.36
2023-02-16T22:41:21.916Z,67.24
2023-02-16T22:43:52.084Z,67.13
2023-02-16T22:46:18.786Z,66.76
2023-02-16T22:48:45.562Z,66.72
2023-02-16T22:51:13.821Z,66.75
2023-02-16T22:53:40.456Z,66.79
2023-02-16T22:56:09.632Z,66.64
2023-02-16T22:58:36.895Z,66.85
2023-02-16T23:01:04.481Z,66.76
2023-02-16T23:03:31.752Z,67.07
2023-02-16T23:05:58.331Z,67.21
2023-02-16T23:08:24.924Z,67.17
2023-02-16T23:11:00.561Z,67.32
2023-02-16T23:13:32.419Z,67.13
2023-02-16T23:16:12.414Z,66.90
2023-02-16T23:18:39.039Z,67.11
2023-02-16T23:21:07.725Z,67.06
2023-02-16T23:23:34.690Z,67.27
2023-02-16T23:26:01.348Z,67.44
2023-02-16T23:28:27.956Z,67.49
2023-02-16T23:30:56.839Z,68.18
2023-02-16T23:33:23.695Z,68.38
2023-02-16T23:35:50.608Z,68.69
2023-02-16T23:38:17.497Z,68.53
2023-02-16T23:40:44.124Z,68.94
2023-02-16T23:43:10.777Z,68.61
2023-02-16T23:45:37.771Z,68.98
2023-02-16T23:48:04.436Z,69.13
2023-02-16T23:50:31.004Z,68.91
2023-02-16T23:52:57.564Z,68.68
2023-02-16T23:55:24.145Z,69.02
2023-02-16T23:57:50.667Z,68.70
